Time;durP1;ratioP1;P1;durP2;ratioP2;P2;SDS_P1;SDS_P2;PMS_P1;PMS_P2;Temp;Humidity;BMP_temperature;BMP_pressure;BME280_temperature;BME280_humidity;BME280_pressure;Samples;Min_cycle;Max_cycle;Signal;HPM_P1;HPM_P2
2022/08/03 00:00:55;;;;;;;15.63;7.55;;;;;;;18.73;90.73;101440.16;5025146;28;20602;-65
2022/08/03 00:03:21;;;;;;;20.40;6.80;;;;;;;18.73;90.86;101445.72;5024899;28;20108;-67
2022/08/03 00:05:49;;;;;;;23.85;6.93;;;;;;;18.67;91.08;101444.84;5025881;28;20041;-65
2022/08/03 00:08:14;;;;;;;15.38;5.85;;;;;;;18.65;90.15;101438.72;5024249;28;20374;-65
2022/08/03 00:10:40;;;;;;;18.30;6.07;;;;;;;18.64;90.32;101442.59;5024034;28;20037;-65
2022/08/03 00:13:05;;;;;;;16.85;5.95;;;;;;;18.64;90.83;101439.81;5023717;28;20365;-65
2022/08/03 00:15:30;;;;;;;14.35;5.53;;;;;;;18.58;90.74;101443.66;5024552;28;20479;-65
2022/08/03 00:17:55;;;;;;;17.00;5.78;;;;;;;18.57;91.33;101453.13;5022906;28;20083;-65
2022/08/03 00:20:21;;;;;;;15.45;5.55;;;;;;;18.51;90.50;101445.88;5022448;28;20029;-66
2022/08/03 00:22:49;;;;;;;16.50;6.25;;;;;;;18.48;92.32;101451.13;5024385;28;20083;-65
2022/08/03 00:25:14;;;;;;;;;;;;;;;18.67;88.39;101442.06;5024325;28;20029;-65
2022/08/03 00:27:39;;;;;;;14.15;5.32;;;;;;;18.44;90.85;101439.69;5024012;28;20001;-65
2022/08/03 00:30:05;;;;;;;16.55;6.25;;;;;;;18.39;91.84;101440.50;5023289;28;20496;-65
2022/08/03 00:32:31;;;;;;;14.23;5.45;;;;;;;18.26;91.51;101442.94;5022406;28;20164;-65
2022/08/03 00:34:56;;;;;;;15.00;5.90;;;;;;;18.20;91.52;101443.97;5024030;28;20120;-65
2022/08/03 00:37:21;;;;;;;14.55;5.22;;;;;;;18.16;91.61;101438.13;5026252;28;20306;-66
2022/08/03 00:39:46;;;;;;;12.65;4.80;;;;;;;18.15;91.38;101430.91;5022287;28;20041;-65
2022/08/03 00:42:12;;;;;;;11.23;4.38;;;;;;;18.11;91.07;101438.94;5023642;28;20468;-65
2022/08/03 00:44:39;;;;;;;11.60;4.60;;;;;;;18.08;91.70;101431.09;5023723;28;20030;-65
2022/08/03 00:47:05;;;;;;;10.23;4.27;;;;;;;18.12;91.22;101434.19;5025732;28;20476;-65
2022/08/03 00:49:30;;;;;;;12.68;5.80;;;;;;;18.17;93.40;101427.84;5022840;28;20299;-65
2022/08/03 00:51:56;;;;;;;12.50;5.07;;;;;;;18.17;93.15;101427.84;5022426;28;20031;-65
2022/08/03 00:54:23;;;;;;;14.68;5.85;;;;;;;18.22;93.18;101433.44;5023513;28;20029;-65
2022/08/03 00:56:49;;;;;;;9.90;4.22;;;;;;;18.20;92.12;101427.28;5023210;28;20511;-65
2022/08/03 00:59:15;;;;;;;9.75;4.25;;;;;;;18.17;91.45;101423.13;5022821;28;20025;-65
2022/08/03 01:01:40;;;;;;;9.93;4.57;;;;;;;18.12;91.84;101420.31;5022700;28;20026;-65
2022/08/03 01:04:05;;;;;;;9.55;4.00;;;;;;;18.04;91.17;101424.41;5022917;28;20049;-65
2022/08/03 01:07:19;;;;;;;8.52;3.95;;;;;;;18.03;91.71;101421.91;5023089;28;20029;-65
2022/08/03 01:09:59;;;;;;;9.48;3.97;;;;;;;17.95;93.11;101423.25;5033508;22;20538;-65
2022/08/03 01:12:54;;;;;;;11.30;5.30;;;;;;;17.99;94.27;101418.81;5040526;28;20108;-65
2022/08/03 01:16:05;;;;;;;12.40;5.78;;;;;;;18.09;94.33;101418.03;5043368;28;20037;-65
2022/08/03 01:18:45;;;;;;;12.40;5.53;;;;;;;18.05;94.98;101417.75;5035337;28;20080;-65
2022/08/03 01:21:25;;;;;;;11.50;5.88;;;;;;;18.10;96.33;101415.00;5040842;28;20872;-65
2022/08/03 01:24:02;;;;;;;13.95;6.35;;;;;;;18.11;96.44;101413.91;5042269;28;20036;-65
2022/08/03 01:27:14;;;;;;;11.10;5.03;;;;;;;18.20;94.79;101407.81;5041834;28;20074;-66
2022/08/03 01:29:51;;;;;;;9.80;5.20;;;;;;;18.09;93.51;101418.03;5042404;28;20420;-66
2022/08/03 01:32:24;;;;;;;8.45;4.07;;;;;;;18.02;93.64;101412.72;5042831;28;20025;-66
2022/08/03 01:35:02;;;;;;;10.05;4.30;;;;;;;18.01;93.38;101418.56;5041363;28;20032;-65
2022/08/03 01:37:38;;;;;;;12.52;4.65;;;;;;;17.86;93.66;101417.31;5040867;28;20375;-66
2022/08/03 01:40:05;;;;;;;9.23;4.28;;;;;;;17.80;93.53;101403.66;5031450;28;20386;-65
2022/08/03 01:42:32;;;;;;;10.07;5.00;;;;;;;17.78;94.55;101415.03;5041400;28;20098;-66
2022/08/03 01:44:59;;;;;;;14.83;5.23;;;;;;;17.77;94.52;101406.97;5041960;28;20024;-65
2022/08/03 01:47:27;;;;;;;10.57;4.47;;;;;;;17.75;93.96;101409.19;5040622;28;20029;-66
2022/08/03 01:49:55;;;;;;;9.90;4.32;;;;;;;17.69;93.53;101399.94;5040805;28;20108;-66
2022/08/03 01:52:21;;;;;;;9.30;4.85;;;;;;;17.72;94.45;101412.44;5041953;28;20052;-67
2022/08/03 01:54:49;;;;;;;11.05;6.47;;;;;;;17.72;96.26;101401.34;5042536;28;20362;-65
2022/08/03 01:57:16;;;;;;;12.15;6.82;;;;;;;17.75;96.48;101403.63;5041645;28;20032;-65
2022/08/03 01:59:43;;;;;;;11.30;6.07;;;;;;;17.76;96.60;101405.28;5042284;28;20054;-65
2022/08/03 02:02:12;;;;;;;7.72;4.47;;;;;;;17.74;94.50;101402.78;5042196;28;20060;-65
2022/08/03 02:04:39;;;;;;;11.13;4.43;;;;;;;17.67;94.49;101402.13;5039647;28;20033;-65
2022/08/03 02:07:06;;;;;;;14.53;6.57;;;;;;;17.78;96.23;101403.91;5040820;28;20032;-65
2022/08/03 02:09:33;;;;;;;14.82;6.95;;;;;;;17.78;96.70;101403.06;5041625;28;20092;-65
2022/08/03 02:11:59;;;;;;;12.05;5.82;;;;;;;17.76;96.18;101405.28;5041002;28;20025;-65
2022/08/03 02:14:26;;;;;;;11.07;4.55;;;;;;;17.69;93.87;101399.06;5039631;28;20053;-65
2022/08/03 02:16:53;;;;;;;10.07;5.43;;;;;;;17.70;95.21;101398.81;5041479;28;20475;-66
2022/08/03 02:19:18;;;;;;;12.95;5.55;;;;;;;17.70;95.77;101398.00;5039872;28;20479;-65
2022/08/03 02:21:45;;;;;;;12.50;6.22;;;;;;;17.68;96.51;101398.25;5040297;28;20040;-65
2022/08/03 02:24:11;;;;;;;10.85;5.10;;;;;;;17.68;95.68;101392.69;5032395;28;20109;-65
2022/08/03 02:26:38;;;;;;;10.32;5.22;;;;;;;17.67;95.08;101395.72;5041541;28;20190;-65
2022/08/03 02:29:11;;;;;;;10.50;5.80;;;;;;;17.60;94.28;101396.81;5041431;28;20032;-65
2022/08/03 02:31:38;;;;;;;10.30;5.35;;;;;;;17.57;93.80;101397.31;5041918;28;20036;-65
2022/08/03 02:34:08;;;;;;;12.30;5.50;;;;;;;17.51;93.79;101397.53;5040149;28;20059;-65
2022/08/03 02:36:36;;;;;;;12.75;5.68;;;;;;;17.49;93.99;101388.66;5039895;28;20025;-65
2022/08/03 02:39:03;;;;;;;11.93;6.05;;;;;;;17.49;94.37;101383.94;5040766;28;20032;-65
2022/08/03 02:41:40;;;;;;;12.23;6.15;;;;;;;17.53;95.37;101387.00;5041806;28;20025;-65
2022/08/03 02:44:08;;;;;;;16.30;7.30;;;;;;;17.55;97.02;101385.66;5039699;28;20107;-65
2022/08/03 02:46:38;;;;;;;15.43;7.72;;;;;;;17.59;97.54;101386.78;5039478;28;20448;-65
2022/08/03 02:49:05;;;;;;;15.68;6.70;;;;;;;17.54;96.97;101383.97;5040728;28;20029;-65
2022/08/03 02:51:33;;;;;;;13.50;5.10;;;;;;;17.52;95.10;101377.81;5039647;28;20029;-65
2022/08/03 02:54:01;;;;;;;11.18;5.07;;;;;;;17.46;94.50;101387.22;5041490;28;20108;-65
2022/08/03 02:56:27;;;;;;;12.50;5.47;;;;;;;17.45;94.54;101381.94;5041926;28;20025;-65
2022/08/03 02:58:54;;;;;;;10.55;6.25;;;;;;;17.44;95.03;101383.88;5043083;28;20025;-66
2022/08/03 03:01:21;;;;;;;15.67;7.03;;;;;;;17.50;96.89;101385.59;5045009;28;20029;-65
2022/08/03 03:03:50;;;;;;;14.68;6.95;;;;;;;17.56;96.40;101378.97;5046279;28;20037;-65
2022/08/03 03:06:17;;;;;;;12.30;7.38;;;;;;;17.56;96.83;101383.69;5043088;28;20506;-65
2022/08/03 03:08:42;;;;;;;11.40;6.30;;;;;;;17.52;95.62;101383.38;5045049;28;20473;-65
2022/08/03 03:11:09;;;;;;;15.60;6.22;;;;;;;17.51;95.27;101381.72;5043744;28;20017;-65
2022/08/03 03:13:35;;;;;;;11.32;5.90;;;;;;;17.42;94.41;101388.00;5044097;28;20509;-65
2022/08/03 03:16:04;;;;;;;12.98;5.80;;;;;;;17.33;94.44;101388.47;5043753;28;20471;-65
2022/08/03 03:18:32;;;;;;;12.20;5.68;;;;;;;17.35;94.86;101388.22;5043620;28;20662;-65
2022/08/03 03:20:57;;;;;;;13.93;6.77;;;;;;;17.41;96.32;101380.78;5043227;28;20036;-65
2022/08/03 03:23:24;;;;;;;14.63;7.40;;;;;;;17.47;97.79;101386.13;5045458;28;20021;-65
2022/08/03 03:25:51;;;;;;;12.10;6.93;;;;;;;17.54;98.11;101386.75;5044907;28;20059;-65
2022/08/03 03:28:16;;;;;;;13.50;7.10;;;;;;;17.58;98.78;101382.31;5044933;28;20112;-65
2022/08/03 03:30:42;;;;;;;13.00;6.85;;;;;;;17.58;98.44;101381.47;5044932;28;20025;-65
2022/08/03 03:33:07;;;;;;;13.27;6.68;;;;;;;17.56;97.84;101378.16;5043348;28;20040;-65
2022/08/03 03:35:33;;;;;;;14.50;7.78;;;;;;;17.51;97.02;101381.72;5043417;28;20056;-65
2022/08/03 03:37:58;;;;;;;11.90;6.78;;;;;;;17.56;97.12;101376.19;5043168;28;20422;-65
2022/08/03 03:40:25;;;;;;;11.65;6.38;;;;;;;17.59;97.71;101378.47;5044371;28;20057;-66
2022/08/03 03:42:50;;;;;;;19.15;7.88;;;;;;;17.56;98.37;101373.44;5043665;28;20029;-67
2022/08/03 03:45:16;;;;;;;14.75;7.13;;;;;;;17.62;98.14;101372.34;5045233;28;20365;-65
2022/08/03 03:47:42;;;;;;;15.55;7.50;;;;;;;17.60;98.33;101374.56;5042877;28;20055;-65
2022/08/03 03:50:09;;;;;;;14.70;7.15;;;;;;;17.64;100.00;101381.28;5043779;28;20082;-65
2022/08/03 03:52:35;;;;;;;19.42;8.13;;;;;;;17.69;99.74;101377.72;5044576;28;20390;-65
2022/08/03 03:55:00;;;;;;;17.58;8.63;;;;;;;17.67;99.78;101379.06;5044738;28;20028;-65
2022/08/03 03:57:26;;;;;;;13.73;7.70;;;;;;;17.67;100.00;101374.34;5044803;28;20029;-65
2022/08/03 03:59:51;;;;;;;17.35;9.30;;;;;;;17.67;99.98;101370.72;5043754;28;20021;-65
2022/08/03 04:02:17;;;;;;;15.68;7.88;;;;;;;17.61;100.00;101369.84;5045025;28;20036;-65
2022/08/03 04:13:08;;;;;;;18.48;7.97;;;;;;;17.60;100.00;101377.34;5041839;28;20895;-65
2022/08/03 04:15:37;;;;;;;16.75;8.60;;;;;;;17.71;100.00;101380.22;5043215;28;20025;-65
2022/08/03 04:18:03;;;;;;;16.00;8.40;;;;;;;17.75;99.90;101381.41;5043383;28;20033;-65
2022/08/03 04:20:34;;;;;;;18.67;8.05;;;;;;;17.75;99.62;101373.91;5043053;28;20624;-65
2022/08/03 04:23:01;;;;;;;20.60;8.35;;;;;;;17.77;100.00;101380.00;5043879;28;20025;-65
2022/08/03 04:25:29;;;;;;;14.20;8.82;;;;;;;17.80;100.00;101373.94;5043001;28;20052;-65
2022/08/03 04:27:58;;;;;;;16.48;7.97;;;;;;;17.76;100.00;101381.13;5043982;28;20171;-65
2022/08/03 04:30:26;;;;;;;18.83;8.05;;;;;;;17.83;100.00;101383.66;5043373;28;20021;-65
2022/08/03 04:32:55;;;;;;;17.88;7.88;;;;;;;17.89;100.00;101385.38;5042519;28;20475;-65
2022/08/03 04:35:23;;;;;;;20.23;7.90;;;;;;;17.91;99.59;101382.34;5043050;28;20391;-66
2022/08/03 04:37:51;;;;;;;19.05;8.35;;;;;;;17.89;99.87;101385.38;5042451;28;20052;-66
2022/08/03 04:40:38;;;;;;;17.80;8.10;;;;;;;17.96;99.37;101382.38;5041891;28;20221;-65
2022/08/03 04:43:05;;;;;;;18.83;9.10;;;;;;;18.00;99.32;101383.53;5023324;28;20021;-65
2022/08/03 04:45:31;;;;;;;19.60;8.30;;;;;;;18.03;98.83;101389.38;5024149;28;20099;-65
2022/08/03 04:47:58;;;;;;;17.88;8.25;;;;;;;18.06;98.49;101380.50;5023030;28;20025;-65
2022/08/03 04:50:26;;;;;;;17.30;8.65;;;;;;;18.08;98.57;101389.41;5035848;28;20035;-65
2022/08/03 04:52:52;;;;;;;17.88;8.75;;;;;;;18.10;98.60;101390.00;5043786;28;20025;-65
2022/08/03 04:55:30;;;;;;;16.65;8.07;;;;;;;18.13;98.42;101396.94;5042357;28;20087;-65
2022/08/03 04:57:57;;;;;;;17.80;8.10;;;;;;;18.10;97.75;101398.34;5043500;28;20029;-65
2022/08/03 05:00:23;;;;;;;20.48;8.80;;;;;;;18.14;97.98;101402.22;5041377;28;20057;-65
2022/08/03 05:02:48;;;;;;;18.52;8.15;;;;;;;18.18;97.37;101399.75;5043364;28;20040;-65
2022/08/03 05:05:14;;;;;;;21.15;8.98;;;;;;;18.18;97.65;101396.16;5039546;28;20029;-65
2022/08/03 05:07:40;;;;;;;17.00;8.05;;;;;;;18.22;97.12;101405.63;5043426;28;20025;-65
2022/08/03 05:10:07;;;;;;;14.65;8.15;;;;;;;18.27;97.04;101406.50;5041419;28;20446;-65
2022/08/03 05:12:33;;;;;;;17.47;8.60;;;;;;;18.27;97.08;101405.66;5041838;28;20466;-65
2022/08/03 05:14:58;;;;;;;18.92;8.38;;;;;;;18.34;96.51;101400.69;5043218;28;20032;-65
2022/08/03 05:17:23;;;;;;;18.65;8.45;;;;;;;18.35;96.48;101407.94;5041533;28;20029;-65
2022/08/03 05:19:48;;;;;;;16.63;9.15;;;;;;;18.36;96.46;101415.19;5041462;28;20025;-65
2022/08/03 05:22:14;;;;;;;13.23;6.57;;;;;;;18.43;95.29;101404.63;5041140;28;20074;-65
2022/08/03 05:24:39;;;;;;;19.42;7.53;;;;;;;18.50;94.72;101409.94;5042057;28;20040;-66
2022/08/03 05:27:05;;;;;;;19.58;7.63;;;;;;;18.52;95.21;101419.72;5042557;28;20519;-65
2022/08/03 05:29:30;;;;;;;19.40;7.20;;;;;;;18.55;95.58;101418.31;5043416;28;20028;-65
2022/08/03 05:31:55;;;;;;;16.23;7.55;;;;;;;18.62;94.54;101413.38;5042985;28;20029;-65
2022/08/03 05:34:20;;;;;;;15.20;6.85;;;;;;;18.69;93.74;101421.50;5042983;28;20044;-66
2022/08/03 05:36:49;;;;;;;20.60;7.00;;;;;;;18.72;94.13;101418.19;5041991;28;20032;-65
2022/08/03 05:39:14;;;;;;;18.13;6.18;;;;;;;18.74;93.53;101418.72;5042576;28;20021;-65
2022/08/03 05:41:39;;;;;;;13.80;6.18;;;;;;;18.82;92.84;101418.22;5043120;28;20498;-65
2022/08/03 05:44:05;;;;;;;18.92;6.30;;;;;;;18.85;92.87;101426.00;5043258;28;20077;-65
2022/08/03 05:46:30;;;;;;;16.50;5.63;;;;;;;18.91;92.50;101428.56;5038107;28;20483;-65
2022/08/03 05:48:56;;;;;;;16.45;5.80;;;;;;;18.97;92.06;101426.63;5041820;28;20499;-66
2022/08/03 05:51:21;;;;;;;13.05;5.25;;;;;;;19.01;92.54;101426.91;5042410;28;20100;-66
2022/08/03 05:53:46;;;;;;;19.60;4.95;;;;;;;19.08;91.55;101421.94;5043477;28;20021;-65
2022/08/03 05:56:12;;;;;;;16.55;5.85;;;;;;;19.12;91.28;101426.69;5038371;28;20449;-65
2022/08/03 05:58:37;;;;;;;12.18;5.55;;;;;;;19.16;90.48;101425.03;5042619;28;20029;-65
2022/08/03 06:01:03;;;;;;;17.23;4.88;;;;;;;19.21;90.77;101426.13;5043232;28;20035;-65
2022/08/03 06:03:28;;;;;;;10.35;4.80;;;;;;;19.23;90.49;101432.28;5039784;28;20055;-65
2022/08/03 06:05:57;;;;;;;17.02;5.10;;;;;;;19.29;89.73;101420.88;5038077;28;20061;-65
2022/08/03 06:08:22;;;;;;;17.02;5.22;;;;;;;19.36;89.19;101429.81;5043139;28;20025;-65
2022/08/03 06:10:48;;;;;;;13.23;4.85;;;;;;;19.40;89.43;101427.28;5042420;28;20029;-65
2022/08/03 06:13:13;;;;;;;14.50;4.60;;;;;;;19.47;89.18;101421.47;5040820;28;20506;-65
2022/08/03 06:15:39;;;;;;;15.77;4.95;;;;;;;19.52;88.63;101419.53;5039770;28;20032;-65
2022/08/03 06:18:04;;;;;;;16.52;4.95;;;;;;;19.58;87.93;101421.22;5041060;28;20104;-65
2022/08/03 06:20:29;;;;;;;21.17;4.95;;;;;;;19.68;87.62;101423.19;5038639;28;20700;-65
2022/08/03 06:22:55;;;;;;;14.95;4.53;;;;;;;19.74;87.07;101430.44;5043200;28;20120;-65
2022/08/03 06:25:21;;;;;;;16.20;4.75;;;;;;;19.78;86.92;101425.16;5042815;28;20017;-65
2022/08/03 06:27:46;;;;;;;14.32;4.15;;;;;;;19.85;86.63;101431.28;5043298;28;20033;-65
2022/08/03 06:30:12;;;;;;;17.13;4.88;;;;;;;19.92;85.22;101426.25;5042146;28;20036;-65
2022/08/03 06:32:41;;;;;;;16.13;4.38;;;;;;;19.96;85.31;101436.56;5043193;28;20071;-65
2022/08/03 06:35:07;;;;;;;18.17;4.85;;;;;;;20.04;85.43;101429.59;5044216;28;20036;-66
2022/08/03 06:37:47;;;;;;;16.95;5.00;;;;;;;20.12;85.14;101430.97;5044489;28;20041;-65
2022/08/03 06:40:14;;;;;;;17.45;5.07;;;;;;;20.18;84.11;101430.72;5046593;28;20483;-65
2022/08/03 06:42:40;;;;;;;14.35;4.95;;;;;;;20.26;83.53;101434.88;5045959;28;20479;-65
2022/08/03 06:45:07;;;;;;;14.52;4.22;;;;;;;20.31;83.67;101436.81;5044092;28;20486;-65
2022/08/03 06:47:34;;;;;;;14.88;4.70;;;;;;;20.39;83.87;101436.25;5046959;28;20433;-65
2022/08/03 06:49:59;;;;;;;13.73;4.53;;;;;;;20.64;81.95;101439.00;5044463;28;20040;-65
2022/08/03 06:52:24;;;;;;;16.03;4.87;;;;;;;21.11;80.24;101437.69;5045918;28;20029;-65
2022/08/03 06:54:50;;;;;;;20.40;4.03;;;;;;;21.35;78.76;101437.06;5045927;28;20280;-65
2022/08/03 06:57:17;;;;;;;16.92;3.83;;;;;;;21.28;78.44;101436.47;5046581;28;20116;-65
2022/08/03 06:59:42;;;;;;;15.32;4.00;;;;;;;21.24;77.94;101431.50;5040941;28;20542;-65
2022/08/03 07:02:09;;;;;;;13.27;4.25;;;;;;;21.19;78.29;101439.91;5045198;28;20029;-65
2022/08/03 07:04:34;;;;;;;17.75;4.00;;;;;;;21.19;78.03;101439.91;5045720;28;20025;-65
2022/08/03 07:06:59;;;;;;;16.08;4.45;;;;;;;21.27;78.69;101446.00;5045100;28;20486;-65
2022/08/03 07:09:25;;;;;;;14.07;4.07;;;;;;;21.31;77.78;101442.38;5045142;28;20407;-65
2022/08/03 07:11:51;;;;;;;12.45;4.07;;;;;;;21.34;77.01;101440.94;5042674;28;20040;-66
2022/08/03 07:14:19;;;;;;;15.85;4.00;;;;;;;21.33;78.37;101448.50;5045864;28;20115;-65
2022/08/03 07:16:44;;;;;;;13.70;3.67;;;;;;;21.30;77.26;101440.72;5044525;28;20048;-65
2022/08/03 07:19:11;;;;;;;17.27;3.75;;;;;;;21.32;77.70;101451.59;5044078;28;20098;-64
2022/08/03 07:21:36;;;;;;;14.68;4.07;;;;;;;21.38;77.87;101456.00;5042861;28;20061;-65
2022/08/03 07:24:01;;;;;;;15.10;4.00;;;;;;;21.41;76.15;101456.28;5044892;28;20123;-65
2022/08/03 07:26:27;;;;;;;14.18;4.35;;;;;;;21.44;76.77;101460.44;5045277;28;20048;-65
2022/08/03 07:28:52;;;;;;;15.70;3.63;;;;;;;21.45;76.17;101453.75;5039842;28;20092;-65
2022/08/03 07:31:17;;;;;;;19.33;4.10;;;;;;;21.60;76.76;101458.41;5034248;28;20028;-65
2022/08/03 07:33:43;;;;;;;12.63;3.88;;;;;;;21.69;75.57;101463.06;5038321;28;20078;-65
2022/08/03 07:36:08;;;;;;;14.80;4.10;;;;;;;21.75;74.27;101467.53;5041570;28;20036;-65
2022/08/03 07:38:35;;;;;;;15.18;3.53;;;;;;;21.82;74.05;101464.38;5040567;28;20024;-64
2022/08/03 07:41:00;;;;;;;13.57;4.10;;;;;;;21.90;74.47;101457.34;5037554;28;20033;-65
2022/08/03 07:43:25;;;;;;;14.15;3.60;;;;;;;21.94;74.84;101458.41;5042732;28;20057;-66
2022/08/03 07:45:50;;;;;;;20.70;4.57;;;;;;;22.09;74.04;101452.69;5044054;28;20025;-66
2022/08/03 07:48:16;;;;;;;14.63;3.58;;;;;;;22.23;73.23;101458.47;5044506;28;20025;-65
2022/08/03 07:50:41;;;;;;;15.05;3.58;;;;;;;22.33;73.01;101463.97;5044389;28;20021;-64
2022/08/03 07:53:06;;;;;;;16.40;3.47;;;;;;;22.35;71.79;101450.50;5044941;28;20537;-65
2022/08/03 07:55:32;;;;;;;15.32;3.10;;;;;;;22.43;71.91;101451.84;5045132;28;20606;-65
2022/08/03 07:58:08;;;;;;;17.38;3.33;;;;;;;22.49;72.34;101457.09;5043984;28;20025;-65
2022/08/03 08:00:34;;;;;;;18.63;4.10;;;;;;;22.54;71.50;101451.44;5045000;28;20025;-65
2022/08/03 08:03:00;;;;;;;16.13;4.13;;;;;;;22.50;71.38;101453.16;5043970;28;20049;-67
2022/08/03 08:05:26;;;;;;;16.85;3.70;;;;;;;22.52;70.82;101456.50;5044100;28;20441;-64
2022/08/03 08:07:52;;;;;;;12.55;3.15;;;;;;;22.55;70.08;101449.47;5044228;28;20428;-65
2022/08/03 08:10:17;;;;;;;16.25;2.90;;;;;;;22.68;70.73;101440.38;5044595;28;20052;-64
2022/08/03 08:12:43;;;;;;;13.07;3.25;;;;;;;22.74;70.52;101443.94;5044322;28;20094;-65
2022/08/03 08:15:08;;;;;;;18.38;4.32;;;;;;;22.83;70.29;101452.53;5044094;28;20028;-65
2022/08/03 08:17:41;;;;;;;13.02;3.47;;;;;;;22.94;69.15;101457.72;5043111;28;20167;-65
2022/08/03 08:20:07;;;;;;;16.92;3.83;;;;;;;22.97;68.17;101450.72;5040846;28;20029;-65
2022/08/03 08:22:32;;;;;;;15.70;2.92;;;;;;;23.02;68.17;101447.84;5042602;28;20033;-65
2022/08/03 08:24:58;;;;;;;21.50;3.23;;;;;;;23.01;67.68;101455.41;5042730;28;20044;-65
2022/08/03 08:27:24;;;;;;;21.83;3.67;;;;;;;23.12;67.63;101452.47;5042176;28;20382;-65
2022/08/03 08:29:49;;;;;;;15.55;3.33;;;;;;;23.22;66.28;101444.75;5043236;28;20062;-65
2022/08/03 08:32:15;;;;;;;19.13;3.95;;;;;;;23.34;66.06;101451.88;5043377;28;20033;-65
2022/08/03 08:34:40;;;;;;;12.93;2.90;;;;;;;23.44;65.76;101444.16;5042752;28;20033;-65
2022/08/03 08:37:05;;;;;;;15.68;2.97;;;;;;;23.52;65.54;101448.28;5042953;28;20047;-64
2022/08/03 08:39:31;;;;;;;15.32;3.25;;;;;;;23.59;65.36;101448.72;5043386;28;20111;-65
2022/08/03 08:41:56;;;;;;;17.97;3.20;;;;;;;23.71;65.98;101448.28;5043662;28;20029;-65
2022/08/03 08:44:21;;;;;;;20.90;3.78;;;;;;;23.76;64.60;101440.59;5042976;28;20275;-66
2022/08/03 08:46:47;;;;;;;17.52;3.22;;;;;;;23.88;64.37;101442.97;5041294;28;20039;-65
2022/08/03 08:49:16;;;;;;;14.73;3.25;;;;;;;23.91;64.08;101444.31;5032488;28;20032;-65
2022/08/03 08:51:42;;;;;;;12.05;2.60;;;;;;;24.10;64.34;101445.09;5036166;28;20122;-65
2022/08/03 08:54:08;;;;;;;19.45;3.65;;;;;;;24.24;64.62;101445.16;5029788;28;20036;-66
2022/08/03 08:56:34;;;;;;;15.13;3.03;;;;;;;24.36;62.69;101439.06;5030186;28;20033;-65
2022/08/03 08:59:00;;;;;;;17.80;3.58;;;;;;;24.54;62.23;101440.97;5041278;28;20059;-66
2022/08/03 09:01:26;;;;;;;16.20;3.63;;;;;;;24.64;61.85;101437.94;5033255;28;20017;-65
2022/08/03 09:03:53;;;;;;;17.00;2.72;;;;;;;24.75;60.61;101442.22;5033850;28;20810;-66
2022/08/03 09:06:18;;;;;;;16.42;2.83;;;;;;;24.85;60.81;101439.19;5042138;28;20483;-65
2022/08/03 09:08:44;;;;;;;13.40;2.78;;;;;;;24.97;60.41;101432.22;5036630;28;20044;-65
2022/08/03 09:11:09;;;;;;;14.10;3.05;;;;;;;25.13;59.84;101427.94;5033503;28;20238;-65
2022/08/03 09:13:35;;;;;;;14.10;2.85;;;;;;;25.45;59.09;101435.38;5042411;28;20036;-65
2022/08/03 09:16:14;;;;;;;19.02;3.05;;;;;;;25.75;58.24;101447.94;5042765;28;20025;-65
2022/08/03 09:18:43;;;;;;;18.83;3.40;;;;;;;27.25;52.99;101441.56;5038205;28;20021;-66
2022/08/03 09:21:18;;;;;;;20.23;3.22;;;;;;;28.71;50.61;101436.13;5025269;28;20032;-65
2022/08/03 09:23:51;;;;;;;15.27;2.90;;;;;;;29.13;47.70;101437.06;5031241;28;20036;-66
2022/08/03 09:26:31;;;;;;;16.77;3.10;;;;;;;28.91;48.88;101441.00;5040109;28;20033;-66
2022/08/03 09:29:02;;;;;;;19.40;3.13;;;;;;;28.55;49.29;101440.69;5037459;28;20124;-66
2022/08/03 09:31:33;;;;;;;15.23;2.67;;;;;;;28.60;48.79;101444.16;5039394;28;20078;-66
2022/08/03 09:34:07;;;;;;;19.40;2.95;;;;;;;30.32;45.81;101448.94;5033369;28;20640;-66
2022/08/03 09:36:33;;;;;;;14.32;2.20;;;;;;;31.70;40.93;101443.34;5041676;28;20029;-66
2022/08/03 09:39:05;;;;;;;13.07;3.25;;;;;;;33.02;38.84;101443.34;5027750;28;20029;-66
2022/08/03 09:41:31;;;;;;;16.20;2.75;;;;;;;33.37;36.45;101445.38;5040456;28;20029;-66
2022/08/03 09:43:57;;;;;;;13.27;2.47;;;;;;;33.80;35.59;101444.28;5039339;28;20057;-66
2022/08/03 09:46:22;;;;;;;16.15;3.00;;;;;;;34.46;35.05;101440.34;5039888;28;20593;-66
2022/08/03 09:48:47;;;;;;;17.23;2.97;;;;;;;35.10;33.69;101444.31;5038541;28;20031;-66
2022/08/03 09:51:14;;;;;;;14.10;2.80;;;;;;;35.25;32.81;101441.69;5037538;28;20033;-66
2022/08/03 09:53:43;;;;;;;14.10;2.73;;;;;;;35.83;32.84;101441.25;5035257;28;20303;-66
2022/08/03 09:56:09;;;;;;;16.55;2.78;;;;;;;36.52;30.50;101441.66;5038945;28;20302;-67
2022/08/03 09:58:44;;;;;;;17.10;2.60;;;;;;;36.81;31.79;101439.06;5034970;28;20032;-67
2022/08/03 10:01:09;;;;;;;14.30;2.63;;;;;;;37.30;30.53;101443.50;5027218;28;20048;-67
2022/08/03 10:03:37;;;;;;;18.25;2.88;;;;;;;37.77;29.26;101444.59;5038612;28;20025;-67
2022/08/03 10:06:24;;;;;;;14.98;2.22;;;;;;;38.16;30.98;101439.00;5031316;28;20025;-67
2022/08/03 10:09:14;;;;;;;15.50;2.63;;;;;;;38.40;29.19;101440.31;5040905;28;20033;-67
2022/08/03 10:11:40;;;;;;;18.35;2.60;;;;;;;38.01;27.66;101443.88;5037942;28;20052;-67
2022/08/03 10:14:08;;;;;;;13.73;2.40;;;;;;;38.61;27.23;101431.72;5038766;28;20071;-66
2022/08/03 10:16:37;;;;;;;;;;;;;;;39.62;27.71;101443.91;5042364;28;20105;-66
2022/08/03 10:19:05;;;;;;;19.33;2.92;;;;;;;38.68;27.17;101436.66;5042349;28;20522;-66
2022/08/03 10:21:37;;;;;;;18.23;2.75;;;;;;;38.88;27.02;101434.19;5043942;28;20025;-66
2022/08/03 10:24:05;;;;;;;16.75;2.83;;;;;;;39.16;25.71;101437.03;5046739;28;20526;-66
2022/08/03 10:26:33;;;;;;;13.65;2.92;;;;;;;39.25;25.63;101439.50;5047064;28;20033;-66
2022/08/03 10:29:01;;;;;;;19.00;3.03;;;;;;;39.65;26.08;101434.47;5046217;28;20032;-66
2022/08/03 10:31:34;;;;;;;13.10;2.17;;;;;;;40.10;24.64;101424.00;5045425;28;20090;-66
2022/08/03 10:34:01;;;;;;;17.00;3.15;;;;;;;39.96;24.09;101424.06;5046172;28;20083;-66
2022/08/03 10:36:30;;;;;;;16.15;2.97;;;;;;;39.81;24.70;101422.50;5046457;28;20485;-67
2022/08/03 10:38:56;;;;;;;14.65;2.70;;;;;;;39.15;24.76;101423.09;5042697;28;20044;-66
2022/08/03 10:41:24;;;;;;;16.00;3.38;;;;;;;39.06;25.18;101428.44;5038803;28;20032;-66
2022/08/03 10:44:01;;;;;;;18.10;2.42;;;;;;;39.34;26.50;101421.84;5047216;28;20024;-66
2022/08/03 10:46:27;;;;;;;18.27;2.83;;;;;;;39.47;24.41;101419.31;5043990;28;20072;-66
2022/08/03 10:48:55;;;;;;;19.98;3.33;;;;;;;39.04;25.22;101408.75;5038735;28;20180;-66
2022/08/03 10:51:22;;;;;;;18.48;2.65;;;;;;;39.39;24.74;101407.03;5033453;28;20056;-68
2022/08/03 10:53:47;;;;;;;16.75;2.78;;;;;;;39.61;24.11;101408.56;5028118;28;20040;-65
2022/08/03 10:59:19;;;;;;;17.08;3.20;;;;;;;39.51;24.45;101392.19;5029137;28;20072;-66
2022/08/03 11:01:50;;;;;;;15.70;2.83;;;;;;;38.81;26.33;101396.88;5030115;28;20057;-66
2022/08/03 11:04:20;;;;;;;17.90;3.35;;;;;;;37.59;27.19;101390.88;5036440;28;20013;-66
2022/08/03 11:06:47;;;;;;;17.38;3.30;;;;;;;36.76;28.68;101385.03;5042745;28;20468;-66
2022/08/03 11:09:12;;;;;;;16.98;3.13;;;;;;;35.78;29.22;101393.81;5043297;28;20048;-66
2022/08/03 11:11:40;;;;;;;13.98;2.80;;;;;;;34.45;30.89;101375.94;5029033;28;20491;-66
2022/08/03 11:14:25;;;;;;;13.30;2.60;;;;;;;33.68;32.57;101378.94;5039253;28;20025;-66
2022/08/03 11:17:06;;;;;;;14.43;2.88;;;;;;;33.19;34.03;101377.44;5038565;28;20063;-66
2022/08/03 11:19:46;;;;;;;15.95;2.47;;;;;;;33.11;34.15;101371.97;5030733;28;20079;-66
2022/08/03 11:22:12;;;;;;;17.73;2.75;;;;;;;33.02;33.81;101373.00;5031840;28;20033;-66
2022/08/03 11:24:42;;;;;;;15.15;2.70;;;;;;;33.13;35.62;101373.25;5028521;28;20103;-66
2022/08/03 11:27:13;;;;;;;12.27;2.33;;;;;;;32.89;34.18;101379.16;5040439;28;20040;-70
2022/08/03 11:29:55;;;;;;;14.07;2.63;;;;;;;32.94;34.82;101368.31;5039400;28;20451;-72
2022/08/03 11:32:39;;;;;;;12.80;2.53;;;;;;;32.91;35.16;101373.97;5027235;28;20701;-71